Terminal Aerodrome Forecast
Issued by NWS Grand Rapids, MI

Home | Current Version | Previous Version | Text Only | Print | Product List | Glossary On
Versions: 1 2 3 4 5 6 7 8 9 10 11 12 13
000
FTUS43 KGRR 290500
TAFGRR
TAF
KGRR 290532Z 2906/3006 18007KT P6SM BKN150
     FM291400 19014G25KT P6SM BKN100
     FM291800 20020G29KT P6SM -SHRA BKN060
     FM292000 21020G29KT 5SM -SHRA BR OVC025
     FM300000 22014KT 4SM -DZ BR OVC007=

USA.gov is the U.S. government's official web portal to all federal, state and local government web resources and services.